Time;durP1;ratioP1;P1;durP2;ratioP2;P2;SDS_P1;SDS_P2;PMS_P1;PMS_P2;Temp;Humidity;BMP_temperature;BMP_pressure;BME280_temperature;BME280_humidity;BME280_pressure;Samples;Min_cycle;Max_cycle;Signal;HPM_P1;HPM_P2
2023/12/06 00:06:09;;;;;;;107.60;53.60;;;;;;;-3.20;87.99;98315.59;437356;1250;110999;-40
2023/12/06 00:16:16;;;;;;;127.80;52.60;;;;;;;-2.95;88.20;98318.97;437590;1252;107842;-40
2023/12/06 00:26:23;;;;;;;141.00;64.40;;;;;;;-2.82;88.39;98316.44;437488;1250;99221;-42
2023/12/06 00:36:30;;;;;;;156.60;68.30;;;;;;;-2.76;88.40;98304.15;437402;1250;110828;-39
2023/12/06 00:46:37;;;;;;;110.80;49.70;;;;;;;-2.75;88.54;98314.57;436967;1248;457907;-39
2023/12/06 00:56:44;;;;;;;72.60;36.90;;;;;;;-2.50;88.86;98316.93;437455;1250;99221;-41
2023/12/06 01:06:49;;;;;;;96.00;49.10;;;;;;;-2.13;88.72;98306.23;437511;1248;112166;-41
2023/12/06 01:16:56;;;;;;;159.80;67.40;;;;;;;-2.11;88.36;98296.85;437388;1248;109099;-40
2023/12/06 01:27:04;;;;;;;164.00;68.60;;;;;;;-2.32;88.30;98307.44;437508;1250;98877;-40
2023/12/06 01:37:11;;;;;;;154.20;64.00;;;;;;;-2.42;88.61;98306.25;437524;1247;111532;-40
2023/12/06 01:47:17;;;;;;;118.70;50.80;;;;;;;-2.53;88.59;98307.48;437488;1250;108023;-40
2023/12/06 01:57:24;;;;;;;87.30;42.70;;;;;;;-2.47;88.61;98308.83;437538;1251;99243;-39
2023/12/06 02:07:33;;;;;;;90.60;44.10;;;;;;;-2.35;88.64;98313.48;437435;1250;111936;-40
2023/12/06 02:17:42;;;;;;;97.20;45.00;;;;;;;-2.25;88.65;98313.32;437597;1250;108260;-41
2023/12/06 02:27:50;;;;;;;116.70;51.50;;;;;;;-2.22;88.95;98303.81;437517;1244;98763;-39
2023/12/06 02:37:59;;;;;;;84.70;40.60;;;;;;;-2.18;89.08;98302.53;436869;1253;111313;-40
2023/12/06 02:48:06;;;;;;;74.80;36.70;;;;;;;-2.05;88.83;98295.75;436617;1253;108017;-39
2023/12/06 02:58:13;;;;;;;83.60;41.80;;;;;;;-1.97;88.93;98287.23;436645;1253;97994;-38
2023/12/06 03:18:27;;;;;;;115.10;49.90;;;;;;;-1.99;89.09;98292.29;436701;1249;99283;-40
2023/12/06 03:28:35;;;;;;;79.00;38.10;;;;;;;-2.00;89.13;98297.09;436760;1248;112924;-40
2023/12/06 03:38:41;;;;;;;80.20;38.90;;;;;;;-1.95;88.94;98290.32;436903;1247;107655;-39
2023/12/06 03:48:48;;;;;;;94.10;45.50;;;;;;;-1.94;89.05;98285.20;436797;1248;97996;-40
2023/12/06 04:19:09;;;;;;;76.40;41.70;;;;;;;-2.08;89.12;98308.02;436860;1247;112305;-41
2023/12/06 04:39:22;;;;;;;91.10;45.30;;;;;;;-1.93;89.32;98318.11;436945;1248;99199;-41
2023/12/06 04:49:31;;;;;;;132.10;62.50;;;;;;;-1.99;89.25;98321.20;436921;1248;107931;-40
2023/12/06 04:59:38;;;;;;;131.50;58.20;;;;;;;-2.25;89.05;98335.23;437051;1247;98334;-40
2023/12/06 05:09:46;;;;;;;130.40;56.90;;;;;;;-2.67;88.63;98332.64;436902;1251;111453;-39
2023/12/06 05:19:53;;;;;;;136.80;61.30;;;;;;;-3.02;88.66;98331.92;436689;1248;108105;-38
2023/12/06 05:29:59;;;;;;;145.80;62.50;;;;;;;-3.30;88.76;98336.88;436681;1248;99201;-39
2023/12/06 05:40:09;;;;;;;132.50;63.90;;;;;;;-3.54;88.46;98342.35;436501;1247;112968;-39
2023/12/06 05:50:16;;;;;;;128.30;66.70;;;;;;;-3.67;88.10;98344.00;436362;1248;107486;-40
2023/12/06 06:00:24;;;;;;;127.80;62.80;;;;;;;-3.71;88.24;98352.76;436545;1248;99208;-41
2023/12/06 06:10:30;;;;;;;177.30;76.10;;;;;;;-3.84;88.45;98360.84;436548;1247;108748;-40
2023/12/06 06:20:36;;;;;;;193.80;81.30;;;;;;;-3.96;88.57;98364.94;436464;1248;99243;-40
2023/12/06 06:30:43;;;;;;;170.50;74.90;;;;;;;-4.17;88.41;98369.55;436585;1248;111822;-40
2023/12/06 06:40:50;;;;;;;175.50;79.10;;;;;;;-4.33;88.49;98367.74;436393;1251;109095;-40
2023/12/06 06:50:58;;;;;;;173.70;74.50;;;;;;;-4.36;88.60;98376.98;436425;1247;97906;-39
2023/12/06 07:01:06;;;;;;;164.30;79.90;;;;;;;-4.30;88.38;98374.50;436327;1251;108240;-39
2023/12/06 07:11:12;;;;;;;129.20;67.30;;;;;;;-4.06;88.43;98376.64;436607;1253;99228;-39
2023/12/06 07:21:19;;;;;;;167.90;78.00;;;;;;;-3.79;88.59;98375.76;436679;1251;111798;-40
2023/12/06 07:41:32;;;;;;;196.40;82.90;;;;;;;-3.62;88.63;98391.41;436793;1251;99260;-40
2023/12/06 08:11:51;;;;;;;210.30;90.10;;;;;;;-3.10;88.76;98397.39;436472;1247;98384;-40
2023/12/06 08:21:57;;;;;;;198.10;84.80;;;;;;;-2.90;88.69;98397.13;436679;1247;108197;-39
2023/12/06 08:32:05;;;;;;;161.00;75.40;;;;;;;-2.59;88.56;98395.10;436536;1251;99321;-40
2023/12/06 08:52:18;;;;;;;182.70;82.80;;;;;;;-1.94;88.73;98399.39;436570;1247;107156;-40
2023/12/06 09:02:25;;;;;;;200.80;85.90;;;;;;;-1.78;88.49;98402.98;436693;1251;99094;-40
2023/12/06 09:12:33;;;;;;;195.90;87.90;;;;;;;-1.48;88.69;98404.08;436791;1251;114109;-40
2023/12/06 09:32:46;;;;;;;158.10;73.70;;;;;;;-1.48;87.99;98392.23;436653;1248;97995;-41
2023/12/06 09:43:02;;;;;;;167.10;80.00;;;;;;;-1.47;87.93;98389.39;436789;1247;110557;-39
2023/12/06 09:53:09;;;;;;;171.20;77.70;;;;;;;-1.36;87.96;98381.14;436617;1251;107401;-40
2023/12/06 10:03:17;;;;;;;105.20;53.60;;;;;;;-1.08;87.63;98378.90;436368;1251;99196;-39
2023/12/06 10:13:35;;;;;;;133.10;64.80;;;;;;;-0.80;87.60;98370.74;436426;1247;106782;-40
2023/12/06 10:33:46;;;;;;;147.20;70.30;;;;;;;-0.43;87.37;98373.33;436516;1251;111580;-39
2023/12/06 10:54:04;;;;;;;151.30;72.30;;;;;;;-0.29;87.10;98365.71;436533;1251;97982;-40
2023/12/06 11:04:12;;;;;;;178.90;76.30;;;;;;;-0.09;86.91;98360.42;436441;1251;112921;-40
2023/12/06 11:14:23;;;;;;;157.90;74.80;;;;;;;0.06;86.66;98361.54;436501;1247;107167;-39
2023/12/06 11:24:27;;;;;;;147.80;69.10;;;;;;;-0.06;86.26;98366.00;436607;1251;97956;-40
2023/12/06 11:34:40;;;;;;;94.10;52.30;;;;;;;-0.35;85.90;98363.04;436609;1247;107867;-40
2023/12/06 11:44:55;;;;;;;137.30;64.90;;;;;;;-0.47;85.95;98358.20;436650;1247;98120;-40
2023/12/06 11:55:03;;;;;;;145.00;67.90;;;;;;;-0.56;86.30;98365.20;436714;1251;111095;-39
2023/12/06 12:15:17;;;;;;;141.70;68.10;;;;;;;-0.85;85.89;98363.09;436746;1251;99129;-39
2023/12/06 12:25:24;;;;;;;151.50;69.50;;;;;;;-1.04;85.83;98369.10;436730;1248;111880;-40
2023/12/06 12:35:33;;;;;;;89.50;47.70;;;;;;;-1.31;85.26;98355.21;436726;1248;106949;-41
2023/12/06 12:45:38;;;;;;;128.20;61.70;;;;;;;-1.40;85.42;98354.07;436673;1247;437986;-40
2023/12/06 12:55:48;;;;;;;153.20;69.10;;;;;;;-1.65;85.42;98359.33;436785;1247;108128;-40
2023/12/06 13:05:56;;;;;;;176.40;77.60;;;;;;;-1.90;85.37;98353.08;436927;1253;98340;-40
2023/12/06 13:16:04;;;;;;;108.60;54.00;;;;;;;-2.02;85.10;98355.02;436975;1247;110155;-40
2023/12/06 13:26:11;;;;;;;146.00;66.50;;;;;;;-2.02;85.36;98363.98;436960;1247;109173;-40
2023/12/06 13:36:19;;;;;;;161.60;72.20;;;;;;;-2.12;85.63;98367.99;436930;1247;99110;-41
2023/12/06 13:46:26;;;;;;;152.50;69.40;;;;;;;-2.13;85.80;98375.51;436723;1251;110852;-39
2023/12/06 13:56:32;;;;;;;112.00;57.40;;;;;;;-2.36;85.39;98382.95;436723;1247;108893;-40
2023/12/06 14:16:46;;;;;;;150.80;66.20;;;;;;;-2.56;85.49;98391.54;436890;1251;107836;-40
2023/12/06 14:26:53;;;;;;;142.20;64.70;;;;;;;-2.70;85.85;98391.36;436696;1248;99124;-39
2023/12/06 14:37:01;;;;;;;149.00;64.20;;;;;;;-2.92;85.44;98405.46;436894;1247;112341;-40
2023/12/06 14:47:07;;;;;;;115.50;52.90;;;;;;;-3.17;85.33;98399.23;436610;1251;108497;-40
2023/12/06 14:57:14;;;;;;;131.00;58.00;;;;;;;-3.37;85.45;98402.73;436817;1251;99211;-40
2023/12/06 15:07:22;;;;;;;153.00;63.40;;;;;;;-3.58;85.86;98412.92;436784;1251;107125;-41
2023/12/06 15:17:31;;;;;;;166.00;69.70;;;;;;;-3.78;85.85;98412.67;436770;1251;99228;-41
2023/12/06 15:27:37;;;;;;;129.20;55.40;;;;;;;-3.82;86.14;98425.60;436893;1248;109491;-40
2023/12/06 15:37:43;;;;;;;107.10;48.60;;;;;;;-3.81;85.84;98432.97;437291;1251;107360;-40
2023/12/06 15:47:50;;;;;;;140.90;59.90;;;;;;;-3.81;86.26;98433.83;437061;1247;99207;-40
2023/12/06 15:57:57;;;;;;;142.10;61.40;;;;;;;-3.95;86.49;98433.05;437001;1248;107258;-40
2023/12/06 16:08:08;;;;;;;112.70;51.50;;;;;;;-3.96;86.36;98438.71;436946;1247;99295;-40
2023/12/06 16:18:16;;;;;;;97.00;46.80;;;;;;;-3.91;86.55;98452.14;436940;1251;112312;-40
2023/12/06 16:28:23;;;;;;;136.60;58.90;;;;;;;-3.92;87.05;98447.64;437125;1247;108251;-40
2023/12/06 16:38:31;;;;;;;135.10;59.20;;;;;;;-3.94;87.23;98458.98;437077;1253;98808;-39
2023/12/06 16:48:38;;;;;;;115.30;52.20;;;;;;;-3.93;87.04;98465.12;437099;1247;112168;-39
2023/12/06 16:58:45;;;;;;;106.50;49.90;;;;;;;-3.86;87.21;98478.52;437004;1253;107457;-39
2023/12/06 17:08:52;;;;;;;146.30;61.70;;;;;;;-3.84;87.41;98480.59;437021;1247;98820;-40
2023/12/06 17:19:00;;;;;;;143.50;63.40;;;;;;;-3.89;87.59;98476.60;437152;1253;107737;-40
2023/12/06 17:29:07;;;;;;;123.20;57.10;;;;;;;-3.89;87.71;98484.45;437087;1253;99240;-39
2023/12/06 17:39:15;;;;;;;106.20;51.10;;;;;;;-3.76;87.71;98489.53;436867;1252;112006;-40
2023/12/06 17:49:22;;;;;;;147.90;62.70;;;;;;;-3.69;87.84;98494.08;436938;1248;107512;-41
2023/12/06 17:59:30;;;;;;;150.00;63.80;;;;;;;-3.74;88.26;98500.87;436912;1247;99756;-41
2023/12/06 18:09:36;;;;;;;113.20;54.30;;;;;;;-3.73;88.15;98502.98;436800;1252;107852;-40
2023/12/06 18:19:45;;;;;;;103.70;50.40;;;;;;;-3.62;88.12;98516.11;436607;1253;99208;-40
2023/12/06 18:29:53;;;;;;;146.50;62.90;;;;;;;-3.57;88.35;98516.65;436726;1247;112139;-40
2023/12/06 18:40:00;;;;;;;165.20;65.90;;;;;;;-3.61;88.23;98514.98;436713;1253;106428;-39
2023/12/06 18:50:20;;;;;;;116.60;51.90;;;;;;;-3.66;88.26;98516.78;436842;1248;98002;-39
2023/12/06 19:00:28;;;;;;;102.60;48.80;;;;;;;-3.60;88.31;98521.24;436781;1253;107868;-40
2023/12/06 19:10:38;;;;;;;140.50;61.50;;;;;;;-3.53;88.60;98532.64;436728;1248;99250;-39
2023/12/06 19:51:02;;;;;;;148.30;61.00;;;;;;;-3.50;88.85;98559.90;436715;1251;111621;-40
2023/12/06 20:01:10;;;;;;;165.10;68.10;;;;;;;-3.52;88.88;98561.74;436740;1248;107773;-40
2023/12/06 20:31:30;;;;;;;109.00;51.10;;;;;;;-3.55;89.26;98562.51;437094;1261;108405;-40
2023/12/06 20:41:37;;;;;;;147.20;62.90;;;;;;;-3.48;89.32;98566.32;437129;1253;99215;-39
2023/12/06 20:51:45;;;;;;;134.00;59.00;;;;;;;-3.55;89.46;98569.88;437320;1252;110662;-40
2023/12/06 21:01:50;;;;;;;116.60;51.10;;;;;;;-3.60;89.53;98576.41;437069;1251;107410;-40
2023/12/06 21:11:57;;;;;;;103.10;50.40;;;;;;;-3.53;89.41;98571.75;437047;1254;99212;-40
2023/12/06 21:22:04;;;;;;;117.20;53.40;;;;;;;-3.40;89.62;98576.75;437280;1253;111681;-39
2023/12/06 21:32:10;;;;;;;132.90;53.10;;;;;;;-3.38;89.60;98583.46;436848;1252;107275;-38
2023/12/06 21:52:23;;;;;;;141.50;55.00;;;;;;;-3.53;89.89;98593.27;436898;1251;111426;-40
2023/12/06 22:02:30;;;;;;;100.80;44.40;;;;;;;-3.51;89.63;98597.39;436777;1248;106695;-40
2023/12/06 22:12:35;;;;;;;89.80;41.40;;;;;;;-3.41;89.77;98598.90;436497;1252;99214;-39
2023/12/06 22:22:41;;;;;;;116.30;46.70;;;;;;;-3.32;89.81;98599.25;436711;1261;107876;-39
2023/12/06 22:32:48;;;;;;;120.90;48.70;;;;;;;-3.28;90.13;98608.61;436598;1253;97911;-40
2023/12/06 22:42:56;;;;;;;131.80;53.70;;;;;;;-3.40;90.11;98612.09;436665;1261;111730;-39
2023/12/06 23:03:08;;;;;;;87.80;41.50;;;;;;;-3.42;89.99;98607.75;436616;1261;97990;-40
2023/12/06 23:13:15;;;;;;;93.00;45.50;;;;;;;-3.32;89.95;98607.55;436655;1247;111752;-39
2023/12/06 23:23:22;;;;;;;121.30;51.50;;;;;;;-3.28;90.31;98601.53;436541;1247;107755;-41
2023/12/06 23:33:30;;;;;;;120.50;49.90;;;;;;;-3.36;90.26;98607.05;436636;1251;98569;-38
2023/12/06 23:43:37;;;;;;;131.20;55.00;;;;;;;-3.49;90.30;98605.86;436543;1248;111920;-41
2023/12/06 23:53:44;;;;;;;111.80;47.80;;;;;;;-3.50;90.17;98605.48;437017;1248;106860;-40
